Event label	Optional label	Method/Device	Abbreviation	O2A Registry URI	Date/Time	Latitude	Longitude	Elevation	Date/Time end	Latitude end	Longitude end	Elevation end	Comment
iMirabilis2_Leg1_2	IMI2_001	Conductivity-Temperature-Depth- profiler (CTD), Sea-Bird Scientific, SBE 911plus			2021-08-04T01:40:00	15.31650	-23.36900	-877					
iMirabilis2_Leg1_3_AKS291	iMirabilis2 station 3	MultiCorer	MUC		2021-08-04T02:42:00	15.31650	-23.36910	-874	2021-08-04T03:33:00				5 successful cores out of 6
iMirabilis2_Leg1_4_AKS292	iMirabilis2 station 4	MultiCorer	MUC		2021-08-04T04:21:00	15.31650	-23.36910	-876	2021-08-04T05:06:00				6 successful cores out of 6
iMirabilis2_Leg1_5_AKS293	iMirabilis2 station 5	MultiCorer	MUC		2021-08-04T05:23:00	15.31650	-23.36910	-876	2021-08-04T06:07:00				6 successful cores out of 6
iMirabilis2_Leg1_6_AKS294	iMirabilis2 station 6	MultiCorer	MUC		2021-08-04T06:26:00	15.31650	-23.36910	-876	2021-08-04T07:18:00				6 successful cores out of 6
iMirabilis2_Leg1_0_Underway-1		Swath-mapping system Atlas Hydrosweep DS-3	DS3		2021-08-04T08:43:35	15.33940	-23.49500		2021-08-27T00:00:00	16.27210	-23.39200		Event shows start/end point (date/time & coordinates) of first/last data record using Atlas Hydrographic Hydrosweep DS 3 multibeam echo sounder during cruise iMirabilis2_Leg1
iMirabilis2_Leg1_8	IMI2_202	Conductivity-Temperature-Depth- profiler (CTD), Sea-Bird Scientific, SBE 911plus			2021-08-05T06:36:00	14.48220	-25.24770	-4399	2021-08-05T09:30:00	14.48230	-25.24790		
iMirabilis2_Leg1_9_AKS295	iMirabilis2 station 9	Benthic chamber lander	BCL		2021-08-06T00:00:00	14.71900	-25.20210	-4168					One experimental chamber, two background chambers.
iMirabilis2_Leg1_11_AKS296	AKS296	Baited camera lander with ADCP	BAIT-ADCP		2021-08-07T01:15:00	14.72626	-25.19930	-4163					Fish (Scomber scombrus) bait. Time between pictures is 150 seconds.
iMirabilis2_Leg1_15	IMI2_204	Conductivity-Temperature-Depth- profiler (CTD), Sea-Bird Scientific, SBE 911plus			2021-08-07T05:39:00	14.52800	-25.15830	-4287					
iMirabilis2_Leg1_ADCP_Section_2	West of Cadamosto Seamount	Vessel mounted Acoustic Doppler Current Profiler, RDI Ocean Surveyor, 75 kHz, retrieved with CODAS processing			2021-08-07T09:03:00	14.56000	-25.15710		2021-08-07T10:15:00	14.74190	-25.14500		
iMirabilis2_Leg1_BC1	BC1	Box corer	BC		2021-08-08T00:00:00	14.70102	-24.87258	-2800					
iMirabilis2_Leg1_BC2	BC2	Box corer	BC		2021-08-08T00:00:00	14.61949	-24.90380	-2548					
iMirabilis2_Leg1_18	IMI2_209	Conductivity-Temperature-Depth- profiler (CTD), Sea-Bird Scientific, SBE 911plus			2021-08-08T00:27:00	14.64570	-24.93830	-2008					
iMirabilis2_Leg1_23	IMI2_208	Conductivity-Temperature-Depth- profiler (CTD), Sea-Bird Scientific, SBE 911plus			2021-08-08T23:09:00	14.62220	-24.98230	-3437					
iMirabilis2_Leg1_19_AKS298	AKS298	Baited camera lander with ADCP	BAIT-ADCP		2021-08-09T08:11:00	14.72782	-25.19011	-4170					Squid (Doryteuthis gahi) bait. Time between pictures is 150 seconds.
iMirabilis2_Leg1_ADCP_Section_3	Northwest of Cadamosto Seamount	Vessel mounted Acoustic Doppler Current Profiler, RDI Ocean Surveyor, 75 kHz, retrieved with CODAS processing			2021-08-09T10:47:00	14.73330	-25.16170		2021-08-09T12:06:00	14.74420	-25.14520		
iMirabilis2_Leg1_24		ROV Luso			2021-08-09T15:14:00	14.38970	-24.55900	-4111	2021-08-10T01:28:00	14.39300	-24.55142	-1946	
iMirabilis2_Leg1_MUC5	MUC5	MultiCorer	MUC		2021-08-10T00:00:00	14.63284	-25.50151	-4394					
iMirabilis2_Leg1_25	IMI2_2095	Conductivity-Temperature-Depth- profiler (CTD), Sea-Bird Scientific, SBE 911plus			2021-08-10T02:14:00	14.65820	-24.91730	-1407					
iMirabilis2_Leg1_28_AKS300	iMirabilis2 station 28	Benthic chamber lander	BCL		2021-08-11T00:00:00	14.71190	-25.19190	-4178					One experimental chamber, two background chambers.
iMirabilis2_Leg1_30	IMI2_207	Conductivity-Temperature-Depth- profiler (CTD), Sea-Bird Scientific, SBE 911plus			2021-08-11T03:43:00	14.59880	-25.02600	-3985					
iMirabilis2_Leg1_26_AKS299	AKS299	Baited camera lander with ADCP	BAIT-ADCP		2021-08-11T10:08:00	14.71928	-25.20928	-4170					Fish (Scomber scombrus) bait. Time between pictures is 150 seconds.
iMirabilis2_Leg1_33	IMI2_301	Conductivity-Temperature-Depth- profiler (CTD), Sea-Bird Scientific, SBE 911plus			2021-08-12T10:54:00	14.75220	-24.36420	-1889	2021-08-12T12:25:00	14.75220	-24.36430		
iMirabilis2_Leg1_34	IMI2_302	Conductivity-Temperature-Depth- profiler (CTD), Sea-Bird Scientific, SBE 911plus			2021-08-12T13:14:00	14.79900	-24.46900	-2088	2021-08-12T13:14:00	14.81200	-24.50300		
iMirabilis2_Leg1_37	IMI2_303	Conductivity-Temperature-Depth- profiler (CTD), Sea-Bird Scientific, SBE 911plus			2021-08-13T16:10:00	14.78570	-24.36670	-1039					
iMirabilis2_Leg1_38	IMI2_304	Conductivity-Temperature-Depth- profiler (CTD), Sea-Bird Scientific, SBE 911plus			2021-08-13T18:23:00	14.70500	-24.37430	-3014					
iMirabilis2_Leg1_39	IMI2_305	Conductivity-Temperature-Depth- profiler (CTD), Sea-Bird Scientific, SBE 911plus			2021-08-13T21:57:00	14.83083	-24.47933	-992	2021-08-13T22:41:00	14.83099	-24.47936		
iMirabilis2_Leg1_36_AKS301	AKS301	Baited camera lander with ADCP	BAIT-ADCP		2021-08-14T16:58:00	14.70678	-25.16991	-4187					Squid (Doryteuthis gahi) bait. Time between pictures is 150 seconds.
iMirabilis2_Leg1_44	IMI2_210	Conductivity-Temperature-Depth- profiler (CTD), Sea-Bird Scientific, SBE 911plus			2021-08-14T21:28:00	14.66900	-24.89420	-2223					
iMirabilis2_Leg1_43_AKS302	iMirabilis2 station 43	Benthic chamber lander	BCL		2021-08-15T00:00:00	14.72190	-25.17550	-4197					One experimental chamber, two background chambers.
iMirabilis2_Leg1_46		ROV Luso			2021-08-15T11:44:00	14.40459	-24.56001	-2005	2021-08-15T22:30:00	14.40162	-24.55302	-1730	
iMirabilis2_Leg1_49	IMI2_221	Conductivity-Temperature-Depth- profiler (CTD), Sea-Bird Scientific, SBE 911plus			2021-08-16T03:34:00	14.70280	-24.93820	-2889					
iMirabilis2_Leg1_50	IMI2_222	Conductivity-Temperature-Depth- profiler (CTD), Sea-Bird Scientific, SBE 911plus			2021-08-16T06:15:00	14.68020	-24.92750	-2083					
iMirabilis2_Leg1_51	IMI2_223	Conductivity-Temperature-Depth- profiler (CTD), Sea-Bird Scientific, SBE 911plus			2021-08-16T09:02:00	14.63450	-24.90700	-2154					
iMirabilis2_Leg1_47_AKS303	AKS303	Baited camera lander with ADCP	BAIT-ADCP		2021-08-17T07:46:00	14.72920	-25.18168	-4225					Fish (Scomber scombrus) bait. Time between pictures is 150 seconds.
iMirabilis2_Leg1_55		ROV Luso			2021-08-17T12:21:00	14.38099	24.55016	-1952	2021-08-17T20:13:00	14.38550	-24.54927	-1711	
iMirabilis2_Leg1_59	IMI2_224	Conductivity-Temperature-Depth- profiler (CTD), Sea-Bird Scientific, SBE 911plus			2021-08-18T13:33:00	14.61200	-24.89670	-2918					
iMirabilis2_Leg1_60	IMI2_212	Conductivity-Temperature-Depth- profiler (CTD), Sea-Bird Scientific, SBE 911plus			2021-08-18T22:45:00	14.71580	-24.80650	-3218					
iMirabilis2_Leg1_58_AKS306	iMirabilis2 station 58	Benthic chamber lander	BCL		2021-08-19T00:00:00	14.71000	-25.14830	-4215					Three background chambers. Experiment failed to inject labeled material.
iMirabilis2_Leg1_61	IMI2_211	Conductivity-Temperature-Depth- profiler (CTD), Sea-Bird Scientific, SBE 911plus			2021-08-19T01:45:00	14.69280	-24.84930	-2938					
iMirabilis2_Leg1_57_AKS305	AKS305	Baited camera lander with ADCP	BAIT-ADCP		2021-08-19T10:37:00	14.74433	-25.14317	-4192					Squid (Doryteuthis gahi) bait. Time between pictures is 150 seconds.
iMirabilis2_Leg1_64		ROV Luso			2021-08-19T16:20:00	14.40841	-24.54319	-1939	2021-08-20T00:40:00	14.40467	-24.54338	-1761	
iMirabilis2_Leg1_MUC6	MUC6	MultiCorer	MUC		2021-08-20T00:00:00	14.71092	-24.82081	-3184					
iMirabilis2_Leg1_ADCP_Section_4	Cadamosto Seamount	Vessel mounted Acoustic Doppler Current Profiler, RDI Ocean Surveyor, 75 kHz, retrieved with CODAS processing			2021-08-20T10:01:00	14.61950	-24.90380		2021-08-20T12:36:00	14.65840	-24.91730		
iMirabilis2_Leg1_ADCP_Section_5	Cadamosto Seamount	Vessel mounted Acoustic Doppler Current Profiler, RDI Ocean Surveyor, 75 kHz, retrieved with CODAS processing			2021-08-20T12:41:00	14.65970	-24.91490		2021-08-20T14:51:00	14.66900	-24.89420		
iMirabilis2_Leg1_ADCP_Section_6	Cadamosto Seamount	Vessel mounted Acoustic Doppler Current Profiler, RDI Ocean Surveyor, 75 kHz, retrieved with CODAS processing			2021-08-20T14:56:00	14.66730	-24.89670		2021-08-20T17:16:00	14.64560	-24.93820		
iMirabilis2_Leg1_ADCP_Section_7	Cadamosto Seamount	Vessel mounted Acoustic Doppler Current Profiler, RDI Ocean Surveyor, 75 kHz, retrieved with CODAS processing			2021-08-20T17:21:00	14.64570	-24.93830		2021-08-20T18:01:00	14.63940	-24.83110		
iMirabilis2_Leg1_71	IMI2_306	Conductivity-Temperature-Depth- profiler (CTD), Sea-Bird Scientific, SBE 911plus			2021-08-20T22:51:00	14.77100	-24.53933	-3012	2021-08-21T00:53:00	14.77110	-24.53935	-3008	
iMirabilis2_Leg1_75		ROV Luso			2021-08-21T12:26:00	14.40108	-24.55288	-1740	2021-08-21T20:16:00	14.39577	-24.55134	-1421	
iMirabilis2_Leg1_76_AKS309	iMirabilis2 station 76	Benthic chamber lander	BCL		2021-08-22T02:00:00	14.73230	-25.12680	-4208					One experimental chamber, two background chambers.
iMirabilis2_Leg1_73_AKS308	AKS308	Baited camera lander with ADCP	BAIT-ADCP		2021-08-22T18:30:00	14.67598	-25.15398	-4341					Squid (Doryteuthis gahi) bait. Time between pictures is 150 seconds.
iMirabilis2_Leg1_78	IMI2_002	Conductivity-Temperature-Depth- profiler (CTD), Sea-Bird Scientific, SBE 911plus			2021-08-22T20:41:00	14.67530	-25.15320	-4238					
iMirabilis2_Leg1_MUC8	MUC8	MultiCorer	MUC		2021-08-23T00:00:00	14.72380	-25.15682	-4276					
iMirabilis2_Leg1_MUC9	MUC9	MultiCorer	MUC		2021-08-23T00:00:00	14.85667	-25.05179	-4195					
iMirabilis2_Leg1_79_AKS311	AKS311	Baited camera lander with ADCP	BAIT-ADCP		2021-08-24T04:25:00	14.69679	-25.12117	-4255					Fish (Scomber scombrus) bait. Time between pictures is 150 seconds.
iMirabilis2_Leg1_91	IMI2_401	Conductivity-Temperature-Depth- profiler (CTD), Sea-Bird Scientific, SBE 911plus			2021-08-26T08:39:00	14.79700	-24.63583	-1987	2021-08-26T10:03:00	14.79717	-24.63586	-1973	
iMirabilis2_Leg1_ADCP_Section_8	Cabo Verde to Canary Islands	Vessel mounted Acoustic Doppler Current Profiler, RDI Ocean Surveyor, 75 kHz, retrieved with CODAS processing			2021-08-26T23:55:00	16.26190	-23.39850		2021-08-30T08:56:00	27.57930	-15.49960		
